createdAt,value
2019-04-07T00:01:52.877Z,55.63
2019-04-07T00:06:56.525Z,53.77
2019-04-07T00:12:00.566Z,54.63
2019-04-07T00:17:04.263Z,52.87
2019-04-07T00:22:07.985Z,52.87
2019-04-07T00:27:11.610Z,52.77
2019-04-07T00:32:15.180Z,51.13
2019-04-07T00:37:18.880Z,51.50
2019-04-07T00:42:22.634Z,50.83
2019-04-07T00:47:26.326Z,51.60
2019-04-07T00:52:30.109Z,52.50
2019-04-07T00:57:33.797Z,50.87
2019-04-07T01:02:37.609Z,50.43
2019-04-07T01:07:42.104Z,50.67
2019-04-07T01:12:45.892Z,49.47
2019-04-07T01:17:49.908Z,50.47
2019-04-07T01:22:53.723Z,50.30
2019-04-07T01:27:57.798Z,48.47
2019-04-07T01:33:02.166Z,48.57
2019-04-07T01:38:06.053Z,50.23
2019-04-07T01:43:11.257Z,46.27
2019-04-07T01:48:19.303Z,46.67
2019-04-07T01:53:25.359Z,47.58
2019-04-07T01:58:30.824Z,47.47
2019-04-07T02:03:38.909Z,48.17
2019-04-07T02:08:50.578Z,46.50
2019-04-07T02:13:59.269Z,46.60
2019-04-07T02:19:17.417Z,47.40
2019-04-07T02:24:23.415Z,47.13
2019-04-07T02:29:44.844Z,48.07
2019-04-07T02:35:06.084Z,46.23
2019-04-07T02:40:15.093Z,46.13
2019-04-07T02:45:20.427Z,45.80
2019-04-07T02:50:38.584Z,44.75
2019-04-07T02:56:00.430Z,44.77
2019-04-07T03:01:09.630Z,44.53
2019-04-07T03:06:39.411Z,44.47
2019-04-07T03:11:49.129Z,45.60
2019-04-07T03:16:54.381Z,45.63
2019-04-07T03:22:02.849Z,44.97
2019-04-07T03:27:14.313Z,44.47
2019-04-07T03:32:38.870Z,44.97
2019-04-07T03:37:47.182Z,45.10
2019-04-07T03:42:55.184Z,44.55
2019-04-07T03:48:04.152Z,45.20
2019-04-07T03:53:10.202Z,44.83
2019-04-07T03:58:21.217Z,44.90
2019-04-07T04:03:26.630Z,43.33
2019-04-07T04:08:38.318Z,43.30
2019-04-07T04:13:44.253Z,43.83
2019-04-07T04:18:48.269Z,45.60
2019-04-07T04:23:52.984Z,43.13
2019-04-07T04:28:56.683Z,42.83
2019-04-07T04:34:01.384Z,43.63
2019-04-07T04:39:08.136Z,43.70
2019-04-07T04:44:11.900Z,43.07
2019-04-07T04:49:15.469Z,43.57
2019-04-07T04:54:19.375Z,43.70
2019-04-07T04:59:22.980Z,44.77
2019-04-07T05:04:26.834Z,45.63
2019-04-07T05:09:43.197Z,46.07
2019-04-07T05:14:35.813Z,46.40
2019-04-07T05:19:42.612Z,47.80
2019-04-07T05:24:44.665Z,48.27
2019-04-07T05:29:49.433Z,56.47
2019-04-07T05:34:53.053Z,52.70
2019-04-07T05:39:56.664Z,52.40
2019-04-07T05:45:00.617Z,53.33
2019-04-07T05:50:06.340Z,54.10
2019-04-07T05:55:10.849Z,55.10
2019-04-07T06:00:16.714Z,56.40
2019-04-07T06:05:21.180Z,57.03
2019-04-07T06:10:28.514Z,57.50
2019-04-07T06:15:30.293Z,58.67
2019-04-07T06:20:34.364Z,58.63
2019-04-07T06:25:41.694Z,58.50
2019-04-07T06:30:43.966Z,57.73
2019-04-07T06:35:47.748Z,59.93
2019-04-07T06:40:56.520Z,65.12
2019-04-07T06:45:58.487Z,61.85
2019-04-07T06:51:04.973Z,58.15
2019-04-07T06:56:10.217Z,56.35
2019-04-07T07:01:27.541Z,57.67
2019-04-07T07:12:00.622Z,59.65
2019-04-07T07:17:22.465Z,61.50
2019-04-07T07:22:28.456Z,65.25
2019-04-07T07:27:32.804Z,64.80
2019-04-07T07:32:37.301Z,60.92
2019-04-07T07:37:41.049Z,58.00
2019-04-07T07:42:45.825Z,53.70
2019-04-07T07:47:53.234Z,55.43
2019-04-07T07:52:56.082Z,54.23
2019-04-07T07:57:59.928Z,52.95
2019-04-07T08:03:03.650Z,52.27
2019-04-07T08:08:07.251Z,51.90
2019-04-07T08:13:11.316Z,51.35
2019-04-07T08:18:15.646Z,51.55
2019-04-07T08:23:19.821Z,50.90
2019-04-07T08:28:24.291Z,50.78
2019-04-07T08:33:29.532Z,51.30
2019-04-07T08:38:33.403Z,51.83
2019-04-07T08:43:37.371Z,51.25
2019-04-07T08:48:40.992Z,50.65
2019-04-07T08:53:45.131Z,51.50
2019-04-07T08:58:49.067Z,51.53
2019-04-07T09:03:52.744Z,51.98
2019-04-07T09:08:56.452Z,50.90
2019-04-07T09:14:00.193Z,51.55
2019-04-07T09:19:18.190Z,51.88
2019-04-07T09:24:32.748Z,51.55
2019-04-07T09:29:38.685Z,51.65
2019-04-07T09:34:54.008Z,52.30
2019-04-07T09:40:02.049Z,52.62
2019-04-07T09:45:25.432Z,52.25
2019-04-07T09:50:37.537Z,52.40
2019-04-07T09:55:48.944Z,51.48
2019-04-07T10:01:08.091Z,51.77
2019-04-07T10:06:22.307Z,50.67
2019-04-07T10:11:43.949Z,52.58
2019-04-07T10:16:49.542Z,51.45
2019-04-07T10:22:12.317Z,52.65
2019-04-07T10:27:20.489Z,52.08
2019-04-07T10:32:28.431Z,52.15
2019-04-07T10:37:34.423Z,52.27
2019-04-07T10:42:40.213Z,51.33
2019-04-07T10:47:55.080Z,52.90
2019-04-07T10:53:03.737Z,52.25
2019-04-07T10:58:23.043Z,52.58
2019-04-07T11:03:44.446Z,52.17
2019-04-07T11:08:55.527Z,52.17
2019-04-07T11:14:09.778Z,53.95
2019-04-07T11:19:28.383Z,54.40
2019-04-07T11:24:49.971Z,52.88
2019-04-07T11:29:58.449Z,51.85
2019-04-07T11:35:22.191Z,51.60
2019-04-07T11:40:43.278Z,52.00
2019-04-07T11:46:02.887Z,52.55
2019-04-07T11:51:11.873Z,53.38
2019-04-07T11:56:20.640Z,52.65
2019-04-07T12:01:26.159Z,52.00
2019-04-07T12:06:31.579Z,52.05
2019-04-07T12:11:42.652Z,51.98
2019-04-07T12:17:07.568Z,53.90
2019-04-07T12:22:21.812Z,53.90
2019-04-07T12:27:45.168Z,54.25
2019-04-07T12:32:59.791Z,54.70
2019-04-07T12:38:17.632Z,55.90
2019-04-07T12:43:37.850Z,54.25
2019-04-07T12:48:46.874Z,54.20
2019-04-07T12:53:55.253Z,54.63
2019-04-07T12:59:03.350Z,55.05
2019-04-07T13:04:17.864Z,54.23
2019-04-07T13:09:39.139Z,54.88
2019-04-07T13:14:47.593Z,54.53
2019-04-07T13:19:53.422Z,53.58
2019-04-07T13:25:01.492Z,53.85
2019-04-07T13:30:11.650Z,53.92
2019-04-07T13:35:25.778Z,54.85
2019-04-07T13:40:47.300Z,53.50
2019-04-07T13:45:58.835Z,53.63
2019-04-07T13:51:19.064Z,54.10
2019-04-07T13:56:39.672Z,54.18
2019-04-07T14:01:52.422Z,53.98
2019-04-07T14:06:57.690Z,53.83
2019-04-07T14:12:17.873Z,53.03
2019-04-07T14:17:29.693Z,54.65
2019-04-07T14:22:43.996Z,54.30
2019-04-07T14:27:49.313Z,54.63
2019-04-07T14:32:54.648Z,56.73
2019-04-07T14:37:59.848Z,55.38
2019-04-07T14:43:10.656Z,55.45
2019-04-07T14:48:16.195Z,54.40
2019-04-07T14:53:24.419Z,54.58
2019-04-07T14:58:51.307Z,54.70
2019-04-07T15:03:51.294Z,55.25
2019-04-07T15:08:56.656Z,55.88
2019-04-07T15:14:01.541Z,55.75
2019-04-07T15:19:05.690Z,55.48
2019-04-07T15:24:10.081Z,56.23
2019-04-07T15:29:14.595Z,56.28
2019-04-07T15:34:18.726Z,55.10
2019-04-07T15:39:22.675Z,55.83
2019-04-07T15:44:27.133Z,55.60
2019-04-07T15:49:31.041Z,56.42
2019-04-07T15:54:35.060Z,56.50
2019-04-07T15:59:39.441Z,56.28
2019-04-07T16:04:44.148Z,57.30
2019-04-07T16:09:52.786Z,56.25
2019-04-07T16:14:53.549Z,57.93
2019-04-07T16:19:58.605Z,58.58
2019-04-07T16:25:02.322Z,58.52
2019-04-07T16:30:11.304Z,57.85
2019-04-07T16:35:16.561Z,59.05
2019-04-07T16:40:21.731Z,57.70
2019-04-07T16:45:25.504Z,58.30
2019-04-07T16:50:30.170Z,58.77
2019-04-07T16:55:37.103Z,60.03
2019-04-07T17:00:41.840Z,58.85
2019-04-07T17:05:46.293Z,59.55
2019-04-07T17:10:50.821Z,60.17
2019-04-07T17:15:55.210Z,61.53
2019-04-07T17:20:59.388Z,60.63
2019-04-07T17:26:05.715Z,60.93
2019-04-07T17:31:08.997Z,64.17
2019-04-07T17:36:16.729Z,63.60
2019-04-07T17:41:18.408Z,61.33
2019-04-07T17:46:40.671Z,60.57
2019-04-07T17:52:02.265Z,59.37
2019-04-07T17:57:18.800Z,58.43
2019-04-07T18:02:29.337Z,59.60
2019-04-07T18:07:38.157Z,59.40
2019-04-07T18:12:47.871Z,59.47
2019-04-07T18:17:56.457Z,60.55
2019-04-07T18:23:11.067Z,58.23
2019-04-07T18:28:21.546Z,56.20
2019-04-07T18:33:32.456Z,56.93
2019-04-07T18:38:56.047Z,58.23
2019-04-07T18:44:05.631Z,60.63
2019-04-07T18:49:08.364Z,59.33
2019-04-07T18:54:13.768Z,58.40
2019-04-07T18:59:28.058Z,58.53
2019-04-07T19:04:42.353Z,64.70
2019-04-07T19:09:47.746Z,64.60
2019-04-07T19:15:02.360Z,65.57
2019-04-07T19:20:06.361Z,63.73
2019-04-07T19:25:21.540Z,64.50
2019-04-07T19:30:46.886Z,61.55
2019-04-07T19:36:04.805Z,59.90
2019-04-07T19:41:10.993Z,57.83
2019-04-07T19:46:30.222Z,59.33
2019-04-07T19:51:35.288Z,56.97
2019-04-07T19:56:52.768Z,57.97
2019-04-07T20:02:16.141Z,59.00
2019-04-07T20:07:31.399Z,65.37
2019-04-07T20:12:52.920Z,60.17
2019-04-07T20:18:00.916Z,64.57
2019-04-07T20:23:12.176Z,81.50
2019-04-07T20:28:23.547Z,61.47
2019-04-07T20:33:34.467Z,58.87
2019-04-07T20:38:40.178Z,60.07
2019-04-07T20:43:46.440Z,59.00
2019-04-07T20:49:09.969Z,58.00
2019-04-07T20:54:15.312Z,59.63
2019-04-07T20:59:46.968Z,70.03
2019-04-07T21:04:42.484Z,59.90
2019-04-07T21:10:06.553Z,61.30
2019-04-07T21:15:23.642Z,86.47
2019-04-07T21:20:20.388Z,61.97
2019-04-07T21:25:26.412Z,62.80
2019-04-07T21:30:34.437Z,71.23
2019-04-07T21:35:55.737Z,64.70
2019-04-07T21:41:12.243Z,77.17
2019-04-07T21:46:23.660Z,72.70
2019-04-07T21:51:32.974Z,64.93
2019-04-07T21:56:44.202Z,58.63
2019-04-07T22:02:00.675Z,58.53
2019-04-07T22:07:09.099Z,56.77
2019-04-07T22:12:12.973Z,55.73
2019-04-07T22:17:16.544Z,55.27
2019-04-07T22:22:20.235Z,54.97
2019-04-07T22:27:26.076Z,54.60
2019-04-07T22:32:29.185Z,55.63
2019-04-07T22:37:33.173Z,56.40
2019-04-07T22:42:37.167Z,53.77
2019-04-07T22:47:40.945Z,55.63
2019-04-07T22:52:47.352Z,53.13
2019-04-07T22:57:49.783Z,57.23
2019-04-07T23:02:54.121Z,54.37
2019-04-07T23:07:57.829Z,53.97
2019-04-07T23:13:01.566Z,54.73
2019-04-07T23:18:05.467Z,54.87
2019-04-07T23:23:09.122Z,54.93
2019-04-07T23:28:12.857Z,56.13
2019-04-07T23:33:16.490Z,57.93
2019-04-07T23:38:20.136Z,54.63
2019-04-07T23:43:23.829Z,55.87
2019-04-07T23:48:28.396Z,53.23
2019-04-07T23:54:07.275Z,55.17
2019-04-07T23:59:12.572Z,51.13
